sensor_id;sensor_type;location;lat;lon;timestamp;P1;durP1;ratioP1;P2;durP2;ratioP2
58661;SDS011;44432;49.786;22.760;2023-07-08T00:00:36;8.60;;;5.20;;
58661;SDS011;44432;49.786;22.760;2023-07-08T00:03:27;8.60;;;5.60;;
58661;SDS011;44432;49.786;22.760;2023-07-08T00:05:57;14.50;;;8.70;;
58661;SDS011;44432;49.786;22.760;2023-07-08T00:08:28;9.30;;;6.80;;
58661;SDS011;44432;49.786;22.760;2023-07-08T00:10:59;8.70;;;5.60;;
58661;SDS011;44432;49.786;22.760;2023-07-08T00:13:30;9.50;;;5.70;;
58661;SDS011;44432;49.786;22.760;2023-07-08T00:16:00;6.80;;;4.90;;
58661;SDS011;44432;49.786;22.760;2023-07-08T00:18:31;7.70;;;5.50;;
58661;SDS011;44432;49.786;22.760;2023-07-08T00:21:02;8.10;;;5.60;;
58661;SDS011;44432;49.786;22.760;2023-07-08T00:23:36;9.90;;;5.90;;
58661;SDS011;44432;49.786;22.760;2023-07-08T00:26:10;7.40;;;5.60;;
58661;SDS011;44432;49.786;22.760;2023-07-08T00:28:44;9.50;;;5.70;;
58661;SDS011;44432;49.786;22.760;2023-07-08T00:31:14;7.80;;;5.90;;
58661;SDS011;44432;49.786;22.760;2023-07-08T00:33:51;7.30;;;5.60;;
58661;SDS011;44432;49.786;22.760;2023-07-08T00:36:23;7.40;;;5.60;;
58661;SDS011;44432;49.786;22.760;2023-07-08T00:38:56;9.50;;;5.50;;
58661;SDS011;44432;49.786;22.760;2023-07-08T00:41:27;8.70;;;6.10;;
58661;SDS011;44432;49.786;22.760;2023-07-08T00:44:00;7.40;;;5.20;;
58661;SDS011;44432;49.786;22.760;2023-07-08T00:46:37;8.70;;;5.60;;
58661;SDS011;44432;49.786;22.760;2023-07-08T00:49:20;8.60;;;5.90;;
58661;SDS011;44432;49.786;22.760;2023-07-08T00:54:49;9.10;;;5.70;;
58661;SDS011;44432;49.786;22.760;2023-07-08T00:59:54;9.90;;;5.90;;
58661;SDS011;44432;49.786;22.760;2023-07-08T01:02:27;8.90;;;5.90;;
58661;SDS011;44432;49.786;22.760;2023-07-08T01:05:04;10.00;;;6.10;;
58661;SDS011;44432;49.786;22.760;2023-07-08T01:07:38;9.20;;;6.30;;
58661;SDS011;44432;49.786;22.760;2023-07-08T01:10:16;9.70;;;6.10;;
58661;SDS011;44432;49.786;22.760;2023-07-08T01:12:53;7.90;;;5.50;;
58661;SDS011;44432;49.786;22.760;2023-07-08T01:15:30;7.50;;;5.80;;
58661;SDS011;44432;49.786;22.760;2023-07-08T01:18:03;9.50;;;6.00;;
58661;SDS011;44432;49.786;22.760;2023-07-08T01:20:35;11.90;;;6.10;;
58661;SDS011;44432;49.786;22.760;2023-07-08T01:23:06;8.40;;;5.90;;
58661;SDS011;44432;49.786;22.760;2023-07-08T01:25:38;9.00;;;6.30;;
58661;SDS011;44432;49.786;22.760;2023-07-08T01:28:10;10.10;;;6.70;;
58661;SDS011;44432;49.786;22.760;2023-07-08T01:30:42;9.70;;;6.80;;
58661;SDS011;44432;49.786;22.760;2023-07-08T01:33:15;10.30;;;6.30;;
58661;SDS011;44432;49.786;22.760;2023-07-08T01:35:49;10.90;;;6.40;;
58661;SDS011;44432;49.786;22.760;2023-07-08T01:38:21;11.10;;;6.20;;
58661;SDS011;44432;49.786;22.760;2023-07-08T01:40:56;11.40;;;5.90;;
58661;SDS011;44432;49.786;22.760;2023-07-08T01:43:27;8.50;;;6.40;;
58661;SDS011;44432;49.786;22.760;2023-07-08T01:45:59;7.60;;;5.80;;
58661;SDS011;44432;49.786;22.760;2023-07-08T01:51:05;8.20;;;5.70;;
58661;SDS011;44432;49.786;22.760;2023-07-08T01:53:37;10.00;;;5.90;;
58661;SDS011;44432;49.786;22.760;2023-07-08T01:56:10;7.20;;;5.80;;
58661;SDS011;44432;49.786;22.760;2023-07-08T01:58:42;9.80;;;5.90;;
58661;SDS011;44432;49.786;22.760;2023-07-08T02:01:13;8.90;;;6.20;;
58661;SDS011;44432;49.786;22.760;2023-07-08T02:03:43;8.00;;;5.70;;
58661;SDS011;44432;49.786;22.760;2023-07-08T02:06:14;8.30;;;6.50;;
58661;SDS011;44432;49.786;22.760;2023-07-08T02:08:45;10.70;;;6.30;;
58661;SDS011;44432;49.786;22.760;2023-07-08T02:11:15;9.10;;;6.70;;
58661;SDS011;44432;49.786;22.760;2023-07-08T02:13:46;9.30;;;6.50;;
58661;SDS011;44432;49.786;22.760;2023-07-08T02:16:17;9.70;;;6.60;;
58661;SDS011;44432;49.786;22.760;2023-07-08T02:18:47;8.80;;;6.90;;
58661;SDS011;44432;49.786;22.760;2023-07-08T02:21:18;8.70;;;6.50;;
58661;SDS011;44432;49.786;22.760;2023-07-08T02:23:49;11.00;;;6.70;;
58661;SDS011;44432;49.786;22.760;2023-07-08T02:26:20;9.20;;;6.30;;
58661;SDS011;44432;49.786;22.760;2023-07-08T02:28:51;8.50;;;6.30;;
58661;SDS011;44432;49.786;22.760;2023-07-08T02:31:22;7.90;;;6.40;;
58661;SDS011;44432;49.786;22.760;2023-07-08T02:33:53;7.70;;;6.10;;
58661;SDS011;44432;49.786;22.760;2023-07-08T02:36:23;10.80;;;6.50;;
58661;SDS011;44432;49.786;22.760;2023-07-08T02:38:54;11.20;;;6.60;;
58661;SDS011;44432;49.786;22.760;2023-07-08T02:41:25;8.60;;;6.20;;
58661;SDS011;44432;49.786;22.760;2023-07-08T02:43:56;9.50;;;6.70;;
58661;SDS011;44432;49.786;22.760;2023-07-08T02:46:26;11.60;;;6.70;;
58661;SDS011;44432;49.786;22.760;2023-07-08T02:48:57;7.80;;;6.20;;
58661;SDS011;44432;49.786;22.760;2023-07-08T02:51:27;10.80;;;7.20;;
58661;SDS011;44432;49.786;22.760;2023-07-08T02:53:58;8.90;;;6.20;;
58661;SDS011;44432;49.786;22.760;2023-07-08T02:56:29;9.40;;;6.20;;
58661;SDS011;44432;49.786;22.760;2023-07-08T02:58:59;11.80;;;7.60;;
58661;SDS011;44432;49.786;22.760;2023-07-08T03:01:30;11.00;;;7.30;;
58661;SDS011;44432;49.786;22.760;2023-07-08T03:04:01;7.70;;;6.40;;
58661;SDS011;44432;49.786;22.760;2023-07-08T03:06:34;8.60;;;5.60;;
58661;SDS011;44432;49.786;22.760;2023-07-08T03:09:04;7.90;;;6.10;;
58661;SDS011;44432;49.786;22.760;2023-07-08T03:11:36;11.00;;;5.90;;
58661;SDS011;44432;49.786;22.760;2023-07-08T03:14:07;8.10;;;6.30;;
58661;SDS011;44432;49.786;22.760;2023-07-08T03:16:38;9.20;;;6.30;;
58661;SDS011;44432;49.786;22.760;2023-07-08T03:19:10;14.70;;;6.20;;
58661;SDS011;44432;49.786;22.760;2023-07-08T03:21:42;8.90;;;6.60;;
58661;SDS011;44432;49.786;22.760;2023-07-08T03:24:13;7.20;;;6.00;;
58661;SDS011;44432;49.786;22.760;2023-07-08T03:26:45;8.60;;;6.30;;
58661;SDS011;44432;49.786;22.760;2023-07-08T03:29:19;12.70;;;6.30;;
58661;SDS011;44432;49.786;22.760;2023-07-08T03:31:50;10.90;;;5.90;;
58661;SDS011;44432;49.786;22.760;2023-07-08T03:34:21;12.20;;;6.50;;
58661;SDS011;44432;49.786;22.760;2023-07-08T03:36:51;12.90;;;7.50;;
58661;SDS011;44432;49.786;22.760;2023-07-08T03:39:23;8.00;;;5.90;;
58661;SDS011;44432;49.786;22.760;2023-07-08T03:41:54;7.00;;;5.70;;
58661;SDS011;44432;49.786;22.760;2023-07-08T03:44:25;8.70;;;6.00;;
58661;SDS011;44432;49.786;22.760;2023-07-08T03:46:55;8.00;;;6.10;;
58661;SDS011;44432;49.786;22.760;2023-07-08T03:49:26;10.00;;;5.90;;
58661;SDS011;44432;49.786;22.760;2023-07-08T03:51:57;8.90;;;5.90;;
58661;SDS011;44432;49.786;22.760;2023-07-08T03:54:27;9.50;;;5.80;;
58661;SDS011;44432;49.786;22.760;2023-07-08T03:56:58;8.00;;;5.60;;
58661;SDS011;44432;49.786;22.760;2023-07-08T03:59:28;12.90;;;6.40;;
58661;SDS011;44432;49.786;22.760;2023-07-08T04:01:59;7.60;;;5.40;;
58661;SDS011;44432;49.786;22.760;2023-07-08T04:04:30;10.30;;;5.70;;
58661;SDS011;44432;49.786;22.760;2023-07-08T04:07:03;6.80;;;5.90;;
58661;SDS011;44432;49.786;22.760;2023-07-08T04:09:34;8.10;;;5.50;;
58661;SDS011;44432;49.786;22.760;2023-07-08T04:12:05;7.30;;;6.10;;
58661;SDS011;44432;49.786;22.760;2023-07-08T04:14:37;8.90;;;5.60;;
58661;SDS011;44432;49.786;22.760;2023-07-08T04:17:10;9.30;;;5.80;;
58661;SDS011;44432;49.786;22.760;2023-07-08T04:19:42;9.00;;;5.90;;
58661;SDS011;44432;49.786;22.760;2023-07-08T04:22:12;7.60;;;5.30;;
58661;SDS011;44432;49.786;22.760;2023-07-08T04:24:43;12.10;;;5.60;;
58661;SDS011;44432;49.786;22.760;2023-07-08T04:27:14;9.30;;;5.50;;
58661;SDS011;44432;49.786;22.760;2023-07-08T04:29:46;6.90;;;5.70;;
58661;SDS011;44432;49.786;22.760;2023-07-08T04:32:17;7.50;;;5.50;;
58661;SDS011;44432;49.786;22.760;2023-07-08T04:34:47;9.10;;;6.00;;
58661;SDS011;44432;49.786;22.760;2023-07-08T04:37:18;10.50;;;6.30;;
58661;SDS011;44432;49.786;22.760;2023-07-08T04:39:49;7.30;;;5.90;;
58661;SDS011;44432;49.786;22.760;2023-07-08T04:42:19;8.50;;;5.70;;
58661;SDS011;44432;49.786;22.760;2023-07-08T04:44:51;8.50;;;5.80;;
58661;SDS011;44432;49.786;22.760;2023-07-08T04:47:22;9.80;;;5.90;;
58661;SDS011;44432;49.786;22.760;2023-07-08T04:49:56;8.10;;;5.40;;
58661;SDS011;44432;49.786;22.760;2023-07-08T04:52:27;8.60;;;5.50;;
58661;SDS011;44432;49.786;22.760;2023-07-08T04:54:58;7.40;;;5.50;;
58661;SDS011;44432;49.786;22.760;2023-07-08T04:57:28;8.70;;;5.60;;
58661;SDS011;44432;49.786;22.760;2023-07-08T04:59:59;9.10;;;5.70;;
58661;SDS011;44432;49.786;22.760;2023-07-08T05:02:30;8.70;;;5.50;;
58661;SDS011;44432;49.786;22.760;2023-07-08T05:05:01;7.70;;;5.30;;
58661;SDS011;44432;49.786;22.760;2023-07-08T05:07:31;10.60;;;6.10;;
58661;SDS011;44432;49.786;22.760;2023-07-08T05:10:02;8.30;;;6.20;;
58661;SDS011;44432;49.786;22.760;2023-07-08T05:12:33;13.10;;;7.70;;
58661;SDS011;44432;49.786;22.760;2023-07-08T05:15:05;8.30;;;5.70;;
58661;SDS011;44432;49.786;22.760;2023-07-08T05:17:38;7.90;;;5.50;;
58661;SDS011;44432;49.786;22.760;2023-07-08T05:20:11;10.60;;;5.20;;
58661;SDS011;44432;49.786;22.760;2023-07-08T05:22:43;7.40;;;5.20;;
58661;SDS011;44432;49.786;22.760;2023-07-08T05:25:15;6.30;;;4.80;;
58661;SDS011;44432;49.786;22.760;2023-07-08T05:27:47;8.20;;;5.70;;
58661;SDS011;44432;49.786;22.760;2023-07-08T05:30:17;12.90;;;8.50;;
58661;SDS011;44432;49.786;22.760;2023-07-08T05:32:48;7.30;;;5.70;;
58661;SDS011;44432;49.786;22.760;2023-07-08T05:35:19;7.70;;;5.60;;
58661;SDS011;44432;49.786;22.760;2023-07-08T05:37:49;9.20;;;5.60;;
58661;SDS011;44432;49.786;22.760;2023-07-08T05:40:20;12.00;;;4.90;;
58661;SDS011;44432;49.786;22.760;2023-07-08T05:42:51;8.10;;;4.60;;
58661;SDS011;44432;49.786;22.760;2023-07-08T05:45:22;8.60;;;5.40;;
58661;SDS011;44432;49.786;22.760;2023-07-08T05:47:52;10.30;;;5.00;;
58661;SDS011;44432;49.786;22.760;2023-07-08T05:50:23;7.80;;;5.10;;
58661;SDS011;44432;49.786;22.760;2023-07-08T05:52:54;8.90;;;4.90;;
58661;SDS011;44432;49.786;22.760;2023-07-08T05:55:24;7.70;;;5.20;;
58661;SDS011;44432;49.786;22.760;2023-07-08T05:57:55;9.20;;;5.50;;
58661;SDS011;44432;49.786;22.760;2023-07-08T06:00:26;8.60;;;5.20;;
58661;SDS011;44432;49.786;22.760;2023-07-08T06:02:56;10.90;;;9.10;;
58661;SDS011;44432;49.786;22.760;2023-07-08T06:05:27;9.60;;;6.10;;
58661;SDS011;44432;49.786;22.760;2023-07-08T06:07:57;9.40;;;5.50;;
58661;SDS011;44432;49.786;22.760;2023-07-08T06:10:28;10.80;;;6.00;;
58661;SDS011;44432;49.786;22.760;2023-07-08T06:12:59;8.20;;;5.20;;
58661;SDS011;44432;49.786;22.760;2023-07-08T06:15:30;9.10;;;5.10;;
58661;SDS011;44432;49.786;22.760;2023-07-08T06:18:00;9.30;;;5.50;;
58661;SDS011;44432;49.786;22.760;2023-07-08T06:20:31;6.60;;;5.00;;
58661;SDS011;44432;49.786;22.760;2023-07-08T06:23:01;7.50;;;5.20;;
58661;SDS011;44432;49.786;22.760;2023-07-08T06:25:32;10.10;;;5.80;;
58661;SDS011;44432;49.786;22.760;2023-07-08T06:28:03;8.50;;;5.40;;
58661;SDS011;44432;49.786;22.760;2023-07-08T06:30:34;7.80;;;5.10;;
58661;SDS011;44432;49.786;22.760;2023-07-08T06:33:05;7.80;;;4.60;;
58661;SDS011;44432;49.786;22.760;2023-07-08T06:35:35;8.40;;;5.10;;
58661;SDS011;44432;49.786;22.760;2023-07-08T06:38:07;7.50;;;4.50;;
58661;SDS011;44432;49.786;22.760;2023-07-08T06:40:38;10.70;;;5.20;;
58661;SDS011;44432;49.786;22.760;2023-07-08T06:43:08;7.40;;;4.30;;
58661;SDS011;44432;49.786;22.760;2023-07-08T06:45:39;9.90;;;4.30;;
58661;SDS011;44432;49.786;22.760;2023-07-08T06:48:11;6.70;;;4.90;;
58661;SDS011;44432;49.786;22.760;2023-07-08T06:50:45;7.90;;;4.40;;
58661;SDS011;44432;49.786;22.760;2023-07-08T06:53:16;6.00;;;4.40;;
58661;SDS011;44432;49.786;22.760;2023-07-08T06:55:46;8.30;;;4.70;;
58661;SDS011;44432;49.786;22.760;2023-07-08T06:58:18;9.30;;;4.90;;
58661;SDS011;44432;49.786;22.760;2023-07-08T07:00:49;10.20;;;4.90;;
58661;SDS011;44432;49.786;22.760;2023-07-08T07:03:19;9.50;;;5.00;;
58661;SDS011;44432;49.786;22.760;2023-07-08T07:05:50;9.90;;;4.50;;
58661;SDS011;44432;49.786;22.760;2023-07-08T07:08:21;6.80;;;4.30;;
58661;SDS011;44432;49.786;22.760;2023-07-08T07:10:52;8.50;;;4.10;;
58661;SDS011;44432;49.786;22.760;2023-07-08T07:13:22;7.50;;;4.40;;
58661;SDS011;44432;49.786;22.760;2023-07-08T07:15:53;7.40;;;4.20;;
58661;SDS011;44432;49.786;22.760;2023-07-08T07:18:24;7.90;;;4.20;;
58661;SDS011;44432;49.786;22.760;2023-07-08T07:20:55;5.80;;;3.40;;
58661;SDS011;44432;49.786;22.760;2023-07-08T07:23:27;9.10;;;3.80;;
58661;SDS011;44432;49.786;22.760;2023-07-08T07:25:58;6.00;;;3.30;;
58661;SDS011;44432;49.786;22.760;2023-07-08T07:28:28;4.00;;;3.00;;
58661;SDS011;44432;49.786;22.760;2023-07-08T07:30:59;10.60;;;4.20;;
58661;SDS011;44432;49.786;22.760;2023-07-08T07:33:30;6.80;;;3.30;;
58661;SDS011;44432;49.786;22.760;2023-07-08T07:36:01;7.30;;;3.60;;
58661;SDS011;44432;49.786;22.760;2023-07-08T07:38:32;9.10;;;3.80;;
58661;SDS011;44432;49.786;22.760;2023-07-08T07:41:03;5.80;;;4.00;;
58661;SDS011;44432;49.786;22.760;2023-07-08T07:43:37;7.30;;;4.30;;
58661;SDS011;44432;49.786;22.760;2023-07-08T07:46:08;8.40;;;4.10;;
58661;SDS011;44432;49.786;22.760;2023-07-08T07:48:39;6.60;;;4.20;;
58661;SDS011;44432;49.786;22.760;2023-07-08T07:51:10;5.20;;;3.70;;
58661;SDS011;44432;49.786;22.760;2023-07-08T07:53:41;9.00;;;4.20;;
58661;SDS011;44432;49.786;22.760;2023-07-08T07:56:12;6.90;;;3.70;;
58661;SDS011;44432;49.786;22.760;2023-07-08T07:58:42;6.40;;;3.90;;
58661;SDS011;44432;49.786;22.760;2023-07-08T08:01:13;6.50;;;3.90;;
58661;SDS011;44432;49.786;22.760;2023-07-08T08:03:44;8.10;;;3.10;;
58661;SDS011;44432;49.786;22.760;2023-07-08T08:06:14;6.60;;;3.00;;
58661;SDS011;44432;49.786;22.760;2023-07-08T08:08:46;5.60;;;3.30;;
58661;SDS011;44432;49.786;22.760;2023-07-08T08:11:17;5.30;;;2.90;;
58661;SDS011;44432;49.786;22.760;2023-07-08T08:13:47;6.00;;;2.80;;
58661;SDS011;44432;49.786;22.760;2023-07-08T08:16:18;5.30;;;2.90;;
58661;SDS011;44432;49.786;22.760;2023-07-08T08:18:49;6.90;;;3.10;;
58661;SDS011;44432;49.786;22.760;2023-07-08T08:21:20;6.60;;;3.10;;
58661;SDS011;44432;49.786;22.760;2023-07-08T08:23:51;6.50;;;3.40;;
58661;SDS011;44432;49.786;22.760;2023-07-08T08:26:21;7.80;;;3.80;;
58661;SDS011;44432;49.786;22.760;2023-07-08T08:28:52;4.40;;;3.00;;
58661;SDS011;44432;49.786;22.760;2023-07-08T08:31:22;8.60;;;2.90;;
58661;SDS011;44432;49.786;22.760;2023-07-08T08:33:53;6.60;;;2.90;;
58661;SDS011;44432;49.786;22.760;2023-07-08T08:36:24;7.20;;;3.30;;
58661;SDS011;44432;49.786;22.760;2023-07-08T08:38:54;4.00;;;3.10;;
58661;SDS011;44432;49.786;22.760;2023-07-08T08:41:30;5.70;;;2.80;;
58661;SDS011;44432;49.786;22.760;2023-07-08T08:44:03;5.60;;;3.00;;
58661;SDS011;44432;49.786;22.760;2023-07-08T08:46:41;4.00;;;2.70;;
58661;SDS011;44432;49.786;22.760;2023-07-08T08:49:24;5.20;;;3.00;;
58661;SDS011;44432;49.786;22.760;2023-07-08T08:51:59;5.80;;;2.90;;
58661;SDS011;44432;49.786;22.760;2023-07-08T08:54:30;5.50;;;2.60;;
58661;SDS011;44432;49.786;22.760;2023-07-08T08:57:02;7.00;;;2.90;;
58661;SDS011;44432;49.786;22.760;2023-07-08T08:59:44;6.30;;;2.90;;
58661;SDS011;44432;49.786;22.760;2023-07-08T09:02:29;3.80;;;2.70;;
58661;SDS011;44432;49.786;22.760;2023-07-08T09:05:05;6.30;;;2.70;;
58661;SDS011;44432;49.786;22.760;2023-07-08T09:07:39;6.00;;;2.80;;
58661;SDS011;44432;49.786;22.760;2023-07-08T09:10:21;4.80;;;2.40;;
58661;SDS011;44432;49.786;22.760;2023-07-08T09:13:05;7.40;;;2.80;;
58661;SDS011;44432;49.786;22.760;2023-07-08T09:15:40;3.90;;;2.40;;
58661;SDS011;44432;49.786;22.760;2023-07-08T09:18:17;3.50;;;2.00;;
58661;SDS011;44432;49.786;22.760;2023-07-08T09:20:54;4.20;;;1.90;;
58661;SDS011;44432;49.786;22.760;2023-07-08T09:23:28;5.80;;;2.60;;
58661;SDS011;44432;49.786;22.760;2023-07-08T09:26:05;5.10;;;2.20;;
58661;SDS011;44432;49.786;22.760;2023-07-08T09:28:43;5.10;;;2.40;;
58661;SDS011;44432;49.786;22.760;2023-07-08T09:31:20;4.30;;;2.40;;
58661;SDS011;44432;49.786;22.760;2023-07-08T09:33:53;3.90;;;2.20;;
58661;SDS011;44432;49.786;22.760;2023-07-08T09:36:33;4.20;;;2.70;;
58661;SDS011;44432;49.786;22.760;2023-07-08T09:39:08;4.30;;;2.40;;
58661;SDS011;44432;49.786;22.760;2023-07-08T09:41:41;5.10;;;2.20;;
58661;SDS011;44432;49.786;22.760;2023-07-08T09:44:15;5.00;;;2.10;;
58661;SDS011;44432;49.786;22.760;2023-07-08T09:46:51;4.60;;;2.40;;
58661;SDS011;44432;49.786;22.760;2023-07-08T09:49:23;2.80;;;2.10;;
58661;SDS011;44432;49.786;22.760;2023-07-08T09:51:56;3.90;;;2.00;;
58661;SDS011;44432;49.786;22.760;2023-07-08T09:54:27;3.40;;;2.00;;
58661;SDS011;44432;49.786;22.760;2023-07-08T09:57:00;3.60;;;2.10;;
58661;SDS011;44432;49.786;22.760;2023-07-08T09:59:38;4.40;;;1.90;;
58661;SDS011;44432;49.786;22.760;2023-07-08T10:02:24;3.70;;;2.30;;
58661;SDS011;44432;49.786;22.760;2023-07-08T10:04:58;3.30;;;1.90;;
58661;SDS011;44432;49.786;22.760;2023-07-08T10:07:36;2.50;;;1.90;;
58661;SDS011;44432;49.786;22.760;2023-07-08T10:10:09;3.20;;;2.40;;
58661;SDS011;44432;49.786;22.760;2023-07-08T10:12:46;2.60;;;2.00;;
58661;SDS011;44432;49.786;22.760;2023-07-08T10:15:26;4.50;;;2.30;;
58661;SDS011;44432;49.786;22.760;2023-07-08T10:18:01;4.80;;;2.10;;
58661;SDS011;44432;49.786;22.760;2023-07-08T10:20:35;6.10;;;2.00;;
58661;SDS011;44432;49.786;22.760;2023-07-08T10:23:21;5.60;;;2.30;;
58661;SDS011;44432;49.786;22.760;2023-07-08T10:26:05;4.80;;;2.70;;
58661;SDS011;44432;49.786;22.760;2023-07-08T10:28:44;4.40;;;1.80;;
58661;SDS011;44432;49.786;22.760;2023-07-08T10:31:25;3.10;;;2.00;;
58661;SDS011;44432;49.786;22.760;2023-07-08T10:34:10;3.80;;;2.20;;
58661;SDS011;44432;49.786;22.760;2023-07-08T10:36:53;2.60;;;1.80;;
58661;SDS011;44432;49.786;22.760;2023-07-08T10:39:38;4.40;;;2.00;;
58661;SDS011;44432;49.786;22.760;2023-07-08T10:42:27;5.40;;;2.10;;
58661;SDS011;44432;49.786;22.760;2023-07-08T10:45:10;4.50;;;2.10;;
58661;SDS011;44432;49.786;22.760;2023-07-08T10:47:49;2.80;;;2.10;;
58661;SDS011;44432;49.786;22.760;2023-07-08T10:53:36;4.20;;;2.00;;
58661;SDS011;44432;49.786;22.760;2023-07-08T10:56:25;5.40;;;2.30;;
58661;SDS011;44432;49.786;22.760;2023-07-08T11:02:00;6.60;;;2.00;;
58661;SDS011;44432;49.786;22.760;2023-07-08T11:04:48;3.40;;;1.70;;
58661;SDS011;44432;49.786;22.760;2023-07-08T11:07:34;4.80;;;2.30;;
58661;SDS011;44432;49.786;22.760;2023-07-08T11:10:10;5.20;;;2.40;;
58661;SDS011;44432;49.786;22.760;2023-07-08T11:12:47;4.10;;;2.10;;
58661;SDS011;44432;49.786;22.760;2023-07-08T11:15:21;4.10;;;1.90;;
58661;SDS011;44432;49.786;22.760;2023-07-08T11:17:58;4.10;;;2.30;;
58661;SDS011;44432;49.786;22.760;2023-07-08T11:20:37;5.00;;;2.20;;
58661;SDS011;44432;49.786;22.760;2023-07-08T11:23:14;3.00;;;1.70;;
58661;SDS011;44432;49.786;22.760;2023-07-08T11:25:53;2.80;;;1.60;;
58661;SDS011;44432;49.786;22.760;2023-07-08T11:28:31;3.20;;;1.90;;
58661;SDS011;44432;49.786;22.760;2023-07-08T11:31:02;4.40;;;2.20;;
58661;SDS011;44432;49.786;22.760;2023-07-08T11:33:35;2.70;;;1.70;;
58661;SDS011;44432;49.786;22.760;2023-07-08T11:36:07;4.90;;;2.20;;
58661;SDS011;44432;49.786;22.760;2023-07-08T11:38:44;6.20;;;1.80;;
58661;SDS011;44432;49.786;22.760;2023-07-08T11:41:19;4.70;;;2.20;;
58661;SDS011;44432;49.786;22.760;2023-07-08T11:43:53;5.60;;;2.80;;
58661;SDS011;44432;49.786;22.760;2023-07-08T11:46:28;4.20;;;2.10;;
58661;SDS011;44432;49.786;22.760;2023-07-08T11:49:03;5.90;;;3.20;;
58661;SDS011;44432;49.786;22.760;2023-07-08T11:51:39;4.30;;;2.40;;
58661;SDS011;44432;49.786;22.760;2023-07-08T11:54:14;6.30;;;2.10;;
58661;SDS011;44432;49.786;22.760;2023-07-08T11:56:59;5.10;;;2.90;;
58661;SDS011;44432;49.786;22.760;2023-07-08T11:59:36;5.10;;;2.20;;
58661;SDS011;44432;49.786;22.760;2023-07-08T12:02:11;5.20;;;2.30;;
58661;SDS011;44432;49.786;22.760;2023-07-08T12:04:53;6.00;;;2.40;;
58661;SDS011;44432;49.786;22.760;2023-07-08T12:07:30;3.10;;;1.90;;
58661;SDS011;44432;49.786;22.760;2023-07-08T12:10:06;4.30;;;1.80;;
58661;SDS011;44432;49.786;22.760;2023-07-08T12:12:46;4.60;;;2.10;;
58661;SDS011;44432;49.786;22.760;2023-07-08T12:15:20;3.30;;;2.00;;
58661;SDS011;44432;49.786;22.760;2023-07-08T12:17:53;3.30;;;2.20;;
58661;SDS011;44432;49.786;22.760;2023-07-08T12:20:26;6.50;;;1.90;;
58661;SDS011;44432;49.786;22.760;2023-07-08T12:23:00;4.40;;;2.10;;
58661;SDS011;44432;49.786;22.760;2023-07-08T12:25:31;3.40;;;2.20;;
58661;SDS011;44432;49.786;22.760;2023-07-08T12:28:03;5.20;;;2.30;;
58661;SDS011;44432;49.786;22.760;2023-07-08T12:30:34;4.00;;;2.40;;
58661;SDS011;44432;49.786;22.760;2023-07-08T12:33:08;3.70;;;2.20;;
58661;SDS011;44432;49.786;22.760;2023-07-08T12:35:41;3.50;;;1.90;;
58661;SDS011;44432;49.786;22.760;2023-07-08T12:40:47;5.00;;;2.40;;
58661;SDS011;44432;49.786;22.760;2023-07-08T12:43:18;5.60;;;2.20;;
58661;SDS011;44432;49.786;22.760;2023-07-08T12:45:49;2.70;;;1.80;;
58661;SDS011;44432;49.786;22.760;2023-07-08T12:48:20;3.60;;;2.00;;
58661;SDS011;44432;49.786;22.760;2023-07-08T12:50:51;4.20;;;1.90;;
58661;SDS011;44432;49.786;22.760;2023-07-08T12:53:22;3.10;;;2.10;;
58661;SDS011;44432;49.786;22.760;2023-07-08T12:55:53;2.80;;;2.10;;
58661;SDS011;44432;49.786;22.760;2023-07-08T12:58:27;3.70;;;2.20;;
58661;SDS011;44432;49.786;22.760;2023-07-08T13:00:59;7.60;;;2.10;;
58661;SDS011;44432;49.786;22.760;2023-07-08T13:03:33;5.80;;;2.30;;
58661;SDS011;44432;49.786;22.760;2023-07-08T13:06:07;4.10;;;2.00;;
58661;SDS011;44432;49.786;22.760;2023-07-08T13:08:41;3.10;;;1.90;;
58661;SDS011;44432;49.786;22.760;2023-07-08T13:11:13;6.00;;;4.40;;
58661;SDS011;44432;49.786;22.760;2023-07-08T13:13:47;3.80;;;2.10;;
58661;SDS011;44432;49.786;22.760;2023-07-08T13:16:23;3.20;;;1.90;;
58661;SDS011;44432;49.786;22.760;2023-07-08T13:18:59;4.40;;;2.30;;
58661;SDS011;44432;49.786;22.760;2023-07-08T13:21:31;4.90;;;2.50;;
58661;SDS011;44432;49.786;22.760;2023-07-08T13:24:06;4.00;;;2.00;;
58661;SDS011;44432;49.786;22.760;2023-07-08T13:26:39;3.40;;;2.00;;
58661;SDS011;44432;49.786;22.760;2023-07-08T13:29:14;3.70;;;2.00;;
58661;SDS011;44432;49.786;22.760;2023-07-08T13:31:52;2.90;;;2.00;;
58661;SDS011;44432;49.786;22.760;2023-07-08T13:34:24;5.40;;;2.10;;
58661;SDS011;44432;49.786;22.760;2023-07-08T13:36:55;5.40;;;2.10;;
58661;SDS011;44432;49.786;22.760;2023-07-08T13:39:27;5.80;;;1.80;;
58661;SDS011;44432;49.786;22.760;2023-07-08T13:42:01;4.50;;;2.20;;
58661;SDS011;44432;49.786;22.760;2023-07-08T13:44:32;3.40;;;2.00;;
58661;SDS011;44432;49.786;22.760;2023-07-08T13:47:03;4.50;;;2.20;;
58661;SDS011;44432;49.786;22.760;2023-07-08T13:49:47;3.70;;;2.00;;
58661;SDS011;44432;49.786;22.760;2023-07-08T13:52:23;5.90;;;2.10;;
58661;SDS011;44432;49.786;22.760;2023-07-08T13:54:54;2.70;;;1.70;;
58661;SDS011;44432;49.786;22.760;2023-07-08T13:57:31;3.00;;;2.00;;
58661;SDS011;44432;49.786;22.760;2023-07-08T14:00:04;3.40;;;2.10;;
58661;SDS011;44432;49.786;22.760;2023-07-08T14:02:36;5.90;;;2.00;;
58661;SDS011;44432;49.786;22.760;2023-07-08T14:05:12;3.60;;;1.90;;
58661;SDS011;44432;49.786;22.760;2023-07-08T14:07:47;4.00;;;2.10;;
58661;SDS011;44432;49.786;22.760;2023-07-08T14:10:18;4.20;;;1.90;;
58661;SDS011;44432;49.786;22.760;2023-07-08T14:12:48;2.70;;;1.90;;
58661;SDS011;44432;49.786;22.760;2023-07-08T14:15:20;3.50;;;2.00;;
58661;SDS011;44432;49.786;22.760;2023-07-08T14:17:51;6.10;;;2.50;;
58661;SDS011;44432;49.786;22.760;2023-07-08T14:20:21;2.80;;;2.00;;
58661;SDS011;44432;49.786;22.760;2023-07-08T14:22:55;3.70;;;2.00;;
58661;SDS011;44432;49.786;22.760;2023-07-08T14:25:25;3.30;;;1.50;;
58661;SDS011;44432;49.786;22.760;2023-07-08T14:27:56;4.30;;;2.40;;
58661;SDS011;44432;49.786;22.760;2023-07-08T14:30:26;2.50;;;1.70;;
58661;SDS011;44432;49.786;22.760;2023-07-08T14:32:57;5.10;;;1.80;;
58661;SDS011;44432;49.786;22.760;2023-07-08T14:35:28;3.50;;;2.10;;
58661;SDS011;44432;49.786;22.760;2023-07-08T14:37:59;5.00;;;1.70;;
58661;SDS011;44432;49.786;22.760;2023-07-08T14:40:32;2.20;;;1.20;;
58661;SDS011;44432;49.786;22.760;2023-07-08T14:43:05;4.10;;;1.90;;
58661;SDS011;44432;49.786;22.760;2023-07-08T14:45:43;2.20;;;1.50;;
58661;SDS011;44432;49.786;22.760;2023-07-08T14:48:16;2.50;;;1.70;;
58661;SDS011;44432;49.786;22.760;2023-07-08T14:50:48;2.70;;;1.70;;
58661;SDS011;44432;49.786;22.760;2023-07-08T14:53:18;2.50;;;1.60;;
58661;SDS011;44432;49.786;22.760;2023-07-08T14:55:49;3.40;;;1.70;;
58661;SDS011;44432;49.786;22.760;2023-07-08T14:58:23;2.90;;;1.60;;
58661;SDS011;44432;49.786;22.760;2023-07-08T15:00:55;2.90;;;1.80;;
58661;SDS011;44432;49.786;22.760;2023-07-08T15:03:27;4.40;;;1.50;;
58661;SDS011;44432;49.786;22.760;2023-07-08T15:05:58;2.20;;;1.70;;
58661;SDS011;44432;49.786;22.760;2023-07-08T15:10:58;3.00;;;2.10;;
58661;SDS011;44432;49.786;22.760;2023-07-08T15:13:29;4.80;;;2.00;;
58661;SDS011;44432;49.786;22.760;2023-07-08T15:16:00;3.70;;;2.10;;
58661;SDS011;44432;49.786;22.760;2023-07-08T15:18:32;4.80;;;1.70;;
58661;SDS011;44432;49.786;22.760;2023-07-08T15:21:02;5.80;;;2.00;;
58661;SDS011;44432;49.786;22.760;2023-07-08T15:26:02;4.90;;;1.90;;
58661;SDS011;44432;49.786;22.760;2023-07-08T15:31:09;2.30;;;1.60;;